createdAt,value
2022-08-24T00:03:34.810Z,68.19355
2022-08-24T00:08:35.897Z,68.19355
2022-08-24T00:13:39.248Z,68.19355
2022-08-24T00:23:46.124Z,67.94366
2022-08-24T00:28:47.078Z,67.94366
2022-08-24T00:33:48.090Z,68.19355
2022-08-24T00:38:48.999Z,67.94366
2022-08-24T00:43:49.911Z,68.19355
2022-08-24T00:48:50.808Z,68.19355
2022-08-24T00:53:51.748Z,68.19355
2022-08-24T00:58:56.979Z,68.19355
2022-08-24T01:03:58.269Z,68.19355
2022-08-24T01:08:59.209Z,68.44444
2022-08-24T01:14:00.199Z,68.19355
2022-08-24T01:19:01.145Z,67.94366
2022-08-24T01:24:02.100Z,67.94366
2022-08-24T01:29:03.102Z,68.19355
2022-08-24T01:34:05.767Z,68.19355
2022-08-24T01:39:06.695Z,68.19355
2022-08-24T01:44:07.584Z,68.19355
2022-08-24T01:49:08.494Z,68.19355
2022-08-24T01:54:09.377Z,68.19355
2022-08-24T01:59:10.243Z,68.19355
2022-08-24T02:04:11.213Z,68.44444
2022-08-24T02:09:18.552Z,68.94929
2022-08-24T02:14:19.466Z,68.69636
2022-08-24T02:24:20.859Z,67.94366
2022-08-24T02:29:21.771Z,67.69478
2022-08-24T02:34:22.694Z,67.2
2022-08-24T02:39:23.577Z,66.95409
2022-08-24T02:44:24.501Z,66.95409
2022-08-24T02:49:25.468Z,66.95409
2022-08-24T02:54:26.349Z,66.70916
2022-08-24T02:59:27.251Z,66.70916
2022-08-24T03:04:28.218Z,66.46521
2022-08-24T03:09:29.318Z,66.46521
2022-08-24T03:14:30.345Z,66.46521
2022-08-24T03:19:31.281Z,66.46521
2022-08-24T03:24:32.141Z,66.46521
2022-08-24T03:29:33.843Z,66.46521
2022-08-24T03:34:34.981Z,66.46521
2022-08-24T03:39:35.870Z,66.46521
2022-08-24T03:44:36.742Z,66.46521
2022-08-24T03:49:37.801Z,66.46521
2022-08-24T03:54:38.768Z,66.22222
2022-08-24T03:59:46.418Z,66.22222
2022-08-24T04:04:47.936Z,66.22222
2022-08-24T04:09:48.836Z,66.22222
2022-08-24T04:14:49.735Z,65.9802
2022-08-24T04:19:50.640Z,65.9802
2022-08-24T04:24:51.923Z,66.22222
2022-08-24T04:29:52.929Z,66.46521
2022-08-24T04:34:53.885Z,66.46521
2022-08-24T04:39:54.941Z,66.46521
2022-08-24T04:44:55.985Z,66.46521
2022-08-24T04:49:57.057Z,66.46521
2022-08-24T04:54:58.041Z,66.70916
2022-08-24T04:59:58.962Z,66.46521
2022-08-24T05:04:59.889Z,66.46521
2022-08-24T05:10:00.964Z,66.22222
2022-08-24T05:15:01.905Z,65.73913
2022-08-24T05:20:03.001Z,65.49901
2022-08-24T05:25:03.915Z,65.25984
2022-08-24T05:30:04.847Z,65.25984
2022-08-24T05:35:05.784Z,65.49901
2022-08-24T05:40:06.802Z,65.49901
2022-08-24T05:45:07.847Z,65.9802
2022-08-24T05:50:08.773Z,65.73913
2022-08-24T06:00:10.148Z,65.02161
2022-08-24T06:05:11.189Z,64.54795
2022-08-24T06:10:35.390Z,64.07797
2022-08-24T06:15:37.563Z,64.54795
2022-08-24T06:20:38.467Z,64.07797
2022-08-24T06:25:39.368Z,63.84436
2022-08-24T06:30:40.313Z,63.37984
2022-08-24T06:35:46.206Z,63.37984
2022-08-24T06:40:48.191Z,63.84436
2022-08-24T06:45:49.143Z,63.61165
2022-08-24T06:50:50.069Z,63.61165
2022-08-24T06:55:50.934Z,63.14894
2022-08-24T07:00:51.839Z,62.68979
2022-08-24T07:05:53.061Z,62.68979
2022-08-24T07:10:53.966Z,62.91892
2022-08-24T07:15:54.946Z,63.14894
2022-08-24T07:20:55.907Z,63.61165
2022-08-24T07:25:57.128Z,63.84436
2022-08-24T07:30:58.060Z,63.37984
2022-08-24T07:35:59.055Z,63.14894
2022-08-24T07:41:33.182Z,62.91892
2022-08-24T07:46:39.088Z,62.46154
2022-08-24T07:51:44.981Z,62.91892
2022-08-24T07:56:48.323Z,62.46154
2022-08-24T08:01:49.298Z,62.46154
2022-08-24T08:06:50.402Z,62.00766
2022-08-24T08:11:51.361Z,62.46154
2022-08-24T08:16:52.287Z,62.46154
2022-08-24T08:21:53.214Z,62.00766
2022-08-24T08:26:54.153Z,62.00766
2022-08-24T08:31:55.078Z,61.33333
2022-08-24T08:36:55.976Z,61.11027
2022-08-24T08:41:56.906Z,61.33333
2022-08-24T08:46:57.877Z,61.11027
2022-08-24T08:51:58.808Z,60.66667
2022-08-24T08:56:59.760Z,60.66667
2022-08-24T09:02:00.757Z,60.66667
2022-08-24T09:07:01.904Z,60.66667
2022-08-24T09:12:02.785Z,60.66667
2022-08-24T09:17:03.751Z,60.88805
2022-08-24T09:22:04.703Z,60.88805
2022-08-24T09:27:05.684Z,61.78203
2022-08-24T09:32:06.653Z,62.23417
2022-08-24T09:37:07.736Z,61.55725
2022-08-24T09:42:08.897Z,61.11027
2022-08-24T09:47:09.819Z,60.88805
2022-08-24T09:52:10.757Z,61.11027
2022-08-24T09:57:12.894Z,60.44612
2022-08-24T10:02:14.321Z,60.66667
2022-08-24T10:07:15.391Z,60.44612
2022-08-24T10:12:16.290Z,61.11027
2022-08-24T10:17:17.290Z,59.57223
2022-08-24T10:22:18.223Z,60.00753
2022-08-24T10:27:19.387Z,60.00753
2022-08-24T10:32:20.318Z,60.88805
2022-08-24T10:37:21.331Z,59.35581
2022-08-24T10:42:25.336Z,58.07407
2022-08-24T10:47:26.559Z,56.61426
2022-08-24T10:52:27.516Z,56.40876
2022-08-24T10:57:28.454Z,57.02752
2022-08-24T11:02:29.478Z,58.28571
2022-08-24T11:07:30.736Z,60.00753
2022-08-24T11:12:31.698Z,61.33333
2022-08-24T11:17:32.615Z,61.11027
2022-08-24T11:22:33.603Z,62.00766
2022-08-24T11:27:34.526Z,61.78203
2022-08-24T11:32:35.431Z,60.22642
2022-08-24T11:37:37.632Z,59.14019
2022-08-24T11:42:38.516Z,59.14019
2022-08-24T11:47:39.459Z,59.57223
2022-08-24T11:52:40.421Z,59.35581
2022-08-24T11:57:48.184Z,59.57223
2022-08-24T12:02:49.673Z,59.35581
2022-08-24T12:07:51.681Z,58.28571
2022-08-24T12:12:53.150Z,57.86322
2022-08-24T12:17:54.082Z,57.65314
2022-08-24T12:22:54.984Z,57.86322
2022-08-24T12:27:55.877Z,57.65314
2022-08-24T12:32:56.871Z,58.07407
2022-08-24T12:37:57.980Z,58.71136
2022-08-24T12:42:58.941Z,58.07407
2022-08-24T12:47:59.950Z,58.49814
2022-08-24T12:53:00.968Z,58.28571
2022-08-24T12:58:03.169Z,56.82051
2022-08-24T13:03:04.121Z,56.82051
2022-08-24T13:08:05.242Z,56.0
2022-08-24T13:13:06.237Z,56.61426
2022-08-24T13:18:07.569Z,57.86322
2022-08-24T13:23:08.697Z,57.86322
2022-08-24T13:28:09.625Z,58.49814
2022-08-24T13:33:10.630Z,57.86322
2022-08-24T13:38:11.612Z,57.86322
2022-08-24T13:43:12.610Z,57.23529
2022-08-24T13:48:13.483Z,57.65314
2022-08-24T13:53:14.357Z,58.92537
2022-08-24T13:58:16.100Z,59.57223
2022-08-24T14:03:17.013Z,58.28571
2022-08-24T14:08:17.923Z,57.23529
2022-08-24T14:13:22.173Z,57.02752
2022-08-24T14:18:25.561Z,57.65314
2022-08-24T14:23:26.569Z,57.65314
2022-08-24T14:28:27.486Z,56.82051
2022-08-24T14:38:31.389Z,56.61426
2022-08-24T14:43:32.276Z,57.23529
2022-08-24T14:48:33.187Z,57.23529
2022-08-24T14:53:34.170Z,57.86322
2022-08-24T14:58:35.103Z,57.65314
2022-08-24T15:03:36.066Z,57.65314
2022-08-24T15:08:37.021Z,58.07407
2022-08-24T15:13:37.940Z,57.65314
2022-08-24T15:18:38.932Z,57.44383
2022-08-24T15:23:39.831Z,57.86322
2022-08-24T15:28:56.325Z,58.07407
2022-08-24T15:39:38.497Z,60.00753
2022-08-24T15:44:39.400Z,59.78947
2022-08-24T15:49:40.273Z,60.88805
2022-08-24T15:54:41.304Z,60.66667
2022-08-24T15:59:42.196Z,60.22642
2022-08-24T16:04:43.343Z,59.78947
2022-08-24T16:09:44.311Z,59.57223
2022-08-24T16:14:47.286Z,59.78947
2022-08-24T16:19:48.591Z,60.00753
2022-08-24T16:24:49.588Z,59.78947
2022-08-24T16:29:51.117Z,59.78947
2022-08-24T16:34:54.647Z,60.00753
2022-08-24T16:39:55.601Z,60.00753
2022-08-24T16:44:56.559Z,60.00753
2022-08-24T16:55:03.092Z,60.88805
2022-08-24T17:00:04.039Z,60.66667
2022-08-24T17:05:05.092Z,60.44612
2022-08-24T17:10:07.173Z,61.11027
2022-08-24T17:15:08.126Z,61.11027
2022-08-24T17:20:09.127Z,62.00766
2022-08-24T17:25:10.041Z,61.78203
2022-08-24T17:30:10.944Z,62.46154
2022-08-24T17:35:11.855Z,63.14894
2022-08-24T17:40:12.898Z,62.91892
2022-08-24T17:45:13.881Z,62.91892
2022-08-24T17:50:14.833Z,63.61165
2022-08-24T17:55:15.781Z,63.37984
2022-08-24T18:00:16.718Z,62.91892
2022-08-24T18:05:17.683Z,62.00766
2022-08-24T18:10:18.608Z,62.46154
2022-08-24T18:15:19.511Z,62.23417
2022-08-24T18:20:20.502Z,62.23417
2022-08-24T18:25:21.374Z,62.00766
2022-08-24T18:30:22.572Z,62.00766
2022-08-24T18:35:26.368Z,62.00766
2022-08-24T18:40:28.282Z,62.68979
2022-08-24T18:45:34.212Z,62.23417
2022-08-24T18:50:38.834Z,62.23417
2022-08-24T18:55:47.486Z,62.00766
2022-08-24T19:00:48.759Z,62.00766
2022-08-24T19:05:52.259Z,62.00766
2022-08-24T19:10:53.245Z,61.78203
2022-08-24T19:15:54.258Z,61.78203
2022-08-24T19:20:55.200Z,62.00766
2022-08-24T19:25:56.118Z,62.00766
2022-08-24T19:30:57.032Z,62.23417
2022-08-24T19:35:57.998Z,62.23417
2022-08-24T19:40:58.900Z,62.46154
2022-08-24T19:45:59.818Z,62.68979
2022-08-24T19:51:00.739Z,62.91892
2022-08-24T19:56:01.787Z,62.91892
2022-08-24T20:01:02.927Z,63.14894
2022-08-24T20:06:03.887Z,62.91892
2022-08-24T20:11:04.908Z,63.37984
2022-08-24T20:16:05.876Z,63.37984
2022-08-24T20:21:11.535Z,63.37984
2022-08-24T20:26:12.453Z,63.37984
2022-08-24T20:31:13.411Z,63.37984
2022-08-24T20:36:14.433Z,63.37984
2022-08-24T20:41:18.012Z,63.37984
2022-08-24T20:46:20.831Z,63.37984
2022-08-24T20:51:22.823Z,63.37984
2022-08-24T20:56:27.775Z,63.61165
2022-08-24T21:01:32.273Z,63.37984
2022-08-24T21:06:33.165Z,63.37984
2022-08-24T21:11:34.068Z,63.61165
2022-08-24T21:16:35.191Z,63.37984
2022-08-24T21:21:38.705Z,63.61165
2022-08-24T21:26:42.732Z,63.61165
2022-08-24T21:31:43.704Z,63.37984
2022-08-24T21:36:45.470Z,63.61165
2022-08-24T21:41:47.567Z,63.61165
2022-08-24T21:46:48.599Z,63.37984
2022-08-24T21:51:49.542Z,63.37984
2022-08-24T21:56:50.436Z,63.37984
2022-08-24T22:01:51.502Z,63.37984
2022-08-24T22:06:52.510Z,63.37984
2022-08-24T22:11:53.483Z,63.37984
2022-08-24T22:16:54.392Z,63.37984
2022-08-24T22:21:55.330Z,63.14894
2022-08-24T22:26:56.228Z,63.37984
2022-08-24T22:31:57.147Z,63.37984
2022-08-24T22:36:58.320Z,63.37984
2022-08-24T22:41:59.262Z,63.14894
2022-08-24T22:47:00.164Z,63.37984
2022-08-24T22:52:01.120Z,63.37984
2022-08-24T22:57:02.058Z,63.37984
2022-08-24T23:02:03.050Z,63.61165
2022-08-24T23:07:04.003Z,63.61165
2022-08-24T23:12:04.935Z,63.61165
2022-08-24T23:17:06.145Z,63.61165
2022-08-24T23:22:07.042Z,63.37984
2022-08-24T23:27:07.965Z,63.61165
2022-08-24T23:32:08.866Z,63.61165
2022-08-24T23:37:09.761Z,63.84436
2022-08-24T23:42:10.729Z,63.84436
2022-08-24T23:47:11.644Z,63.84436
2022-08-24T23:52:28.223Z,63.61165
2022-08-24T23:57:30.784Z,63.84436
